sensor_id;sensor_type;location;lat;lon;timestamp;P1;durP1;ratioP1;P2;durP2;ratioP2
20245;SDS011;10281;54.406;18.556;2023-07-31T00:01:33;6.97;;;4.10;;
20245;SDS011;10281;54.406;18.556;2023-07-31T00:04:00;6.30;;;3.80;;
20245;SDS011;10281;54.406;18.556;2023-07-31T00:06:26;9.57;;;4.90;;
20245;SDS011;10281;54.406;18.556;2023-07-31T00:08:53;5.03;;;4.03;;
20245;SDS011;10281;54.406;18.556;2023-07-31T00:11:20;6.40;;;3.80;;
20245;SDS011;10281;54.406;18.556;2023-07-31T00:13:46;7.83;;;4.50;;
20245;SDS011;10281;54.406;18.556;2023-07-31T00:16:13;5.50;;;3.87;;
20245;SDS011;10281;54.406;18.556;2023-07-31T00:18:39;7.37;;;3.97;;
20245;SDS011;10281;54.406;18.556;2023-07-31T00:21:06;6.90;;;3.70;;
20245;SDS011;10281;54.406;18.556;2023-07-31T00:23:33;5.63;;;3.17;;
20245;SDS011;10281;54.406;18.556;2023-07-31T00:25:59;11.33;;;3.70;;
20245;SDS011;10281;54.406;18.556;2023-07-31T00:28:26;6.00;;;3.37;;
20245;SDS011;10281;54.406;18.556;2023-07-31T00:30:54;7.07;;;3.30;;
20245;SDS011;10281;54.406;18.556;2023-07-31T00:33:21;6.03;;;3.07;;
20245;SDS011;10281;54.406;18.556;2023-07-31T00:35:48;4.23;;;3.07;;
20245;SDS011;10281;54.406;18.556;2023-07-31T00:38:15;4.73;;;3.27;;
20245;SDS011;10281;54.406;18.556;2023-07-31T00:40:41;4.33;;;3.20;;
20245;SDS011;10281;54.406;18.556;2023-07-31T00:43:08;5.00;;;3.30;;
20245;SDS011;10281;54.406;18.556;2023-07-31T00:45:34;6.07;;;3.60;;
20245;SDS011;10281;54.406;18.556;2023-07-31T00:48:01;6.00;;;3.13;;
20245;SDS011;10281;54.406;18.556;2023-07-31T00:50:28;7.03;;;3.40;;
20245;SDS011;10281;54.406;18.556;2023-07-31T00:52:55;4.63;;;3.73;;
20245;SDS011;10281;54.406;18.556;2023-07-31T00:55:22;9.00;;;3.50;;
20245;SDS011;10281;54.406;18.556;2023-07-31T00:57:49;3.60;;;3.00;;
20245;SDS011;10281;54.406;18.556;2023-07-31T01:00:18;7.30;;;3.30;;
20245;SDS011;10281;54.406;18.556;2023-07-31T01:02:45;5.70;;;3.07;;
20245;SDS011;10281;54.406;18.556;2023-07-31T01:05:12;5.90;;;3.60;;
20245;SDS011;10281;54.406;18.556;2023-07-31T01:07:42;6.30;;;3.17;;
20245;SDS011;10281;54.406;18.556;2023-07-31T01:10:16;6.40;;;3.63;;
20245;SDS011;10281;54.406;18.556;2023-07-31T01:12:47;4.03;;;3.20;;
20245;SDS011;10281;54.406;18.556;2023-07-31T01:15:16;6.33;;;3.07;;
20245;SDS011;10281;54.406;18.556;2023-07-31T01:17:43;4.10;;;2.77;;
20245;SDS011;10281;54.406;18.556;2023-07-31T01:20:14;3.90;;;2.73;;
20245;SDS011;10281;54.406;18.556;2023-07-31T01:25:33;5.47;;;2.93;;
20245;SDS011;10281;54.406;18.556;2023-07-31T01:28:20;4.63;;;2.70;;
20245;SDS011;10281;54.406;18.556;2023-07-31T01:30:52;4.33;;;3.17;;
20245;SDS011;10281;54.406;18.556;2023-07-31T01:33:21;3.50;;;2.93;;
20245;SDS011;10281;54.406;18.556;2023-07-31T01:35:48;4.47;;;2.90;;
20245;SDS011;10281;54.406;18.556;2023-07-31T01:38:16;4.17;;;3.10;;
20245;SDS011;10281;54.406;18.556;2023-07-31T01:40:51;4.83;;;2.80;;
20245;SDS011;10281;54.406;18.556;2023-07-31T01:43:19;7.33;;;2.90;;
20245;SDS011;10281;54.406;18.556;2023-07-31T01:45:45;3.43;;;3.07;;
20245;SDS011;10281;54.406;18.556;2023-07-31T01:48:12;7.17;;;3.00;;
20245;SDS011;10281;54.406;18.556;2023-07-31T01:50:38;4.37;;;3.10;;
20245;SDS011;10281;54.406;18.556;2023-07-31T01:53:05;4.23;;;2.60;;
20245;SDS011;10281;54.406;18.556;2023-07-31T01:55:32;5.60;;;3.30;;
20245;SDS011;10281;54.406;18.556;2023-07-31T01:57:58;4.87;;;2.57;;
20245;SDS011;10281;54.406;18.556;2023-07-31T02:00:25;4.10;;;2.80;;
20245;SDS011;10281;54.406;18.556;2023-07-31T02:02:52;5.60;;;2.70;;
20245;SDS011;10281;54.406;18.556;2023-07-31T02:05:18;4.40;;;2.90;;
20245;SDS011;10281;54.406;18.556;2023-07-31T02:07:45;4.50;;;2.20;;
20245;SDS011;10281;54.406;18.556;2023-07-31T02:10:11;5.47;;;2.40;;
20245;SDS011;10281;54.406;18.556;2023-07-31T02:12:38;3.00;;;2.57;;
20245;SDS011;10281;54.406;18.556;2023-07-31T02:15:05;2.70;;;2.30;;
20245;SDS011;10281;54.406;18.556;2023-07-31T02:17:32;4.43;;;2.57;;
20245;SDS011;10281;54.406;18.556;2023-07-31T02:20:00;4.13;;;2.70;;
20245;SDS011;10281;54.406;18.556;2023-07-31T02:22:27;4.47;;;3.03;;
20245;SDS011;10281;54.406;18.556;2023-07-31T02:24:53;4.40;;;2.90;;
20245;SDS011;10281;54.406;18.556;2023-07-31T02:27:20;6.27;;;2.50;;
20245;SDS011;10281;54.406;18.556;2023-07-31T02:29:48;4.03;;;2.70;;
20245;SDS011;10281;54.406;18.556;2023-07-31T02:32:15;2.90;;;2.60;;
20245;SDS011;10281;54.406;18.556;2023-07-31T02:34:42;5.70;;;2.50;;
20245;SDS011;10281;54.406;18.556;2023-07-31T02:37:08;4.60;;;2.30;;
20245;SDS011;10281;54.406;18.556;2023-07-31T02:39:35;4.97;;;2.37;;
20245;SDS011;10281;54.406;18.556;2023-07-31T02:42:02;3.67;;;2.20;;
20245;SDS011;10281;54.406;18.556;2023-07-31T02:44:29;3.27;;;2.33;;
20245;SDS011;10281;54.406;18.556;2023-07-31T02:46:55;5.57;;;2.77;;
20245;SDS011;10281;54.406;18.556;2023-07-31T02:49:22;4.37;;;2.50;;
20245;SDS011;10281;54.406;18.556;2023-07-31T02:51:49;6.10;;;2.63;;
20245;SDS011;10281;54.406;18.556;2023-07-31T02:54:15;3.87;;;2.30;;
20245;SDS011;10281;54.406;18.556;2023-07-31T02:56:42;5.20;;;2.87;;
20245;SDS011;10281;54.406;18.556;2023-07-31T02:59:08;5.03;;;2.80;;
20245;SDS011;10281;54.406;18.556;2023-07-31T03:01:35;4.03;;;2.77;;
20245;SDS011;10281;54.406;18.556;2023-07-31T03:04:02;2.70;;;2.50;;
20245;SDS011;10281;54.406;18.556;2023-07-31T03:06:28;5.87;;;2.73;;
20245;SDS011;10281;54.406;18.556;2023-07-31T03:08:55;4.27;;;2.30;;
20245;SDS011;10281;54.406;18.556;2023-07-31T03:11:21;5.47;;;2.83;;
20245;SDS011;10281;54.406;18.556;2023-07-31T03:13:48;8.43;;;2.63;;
20245;SDS011;10281;54.406;18.556;2023-07-31T03:16:15;5.53;;;2.63;;
20245;SDS011;10281;54.406;18.556;2023-07-31T03:18:41;4.80;;;2.60;;
20245;SDS011;10281;54.406;18.556;2023-07-31T03:21:08;3.87;;;3.00;;
20245;SDS011;10281;54.406;18.556;2023-07-31T03:23:34;3.57;;;2.70;;
20245;SDS011;10281;54.406;18.556;2023-07-31T03:26:02;5.07;;;2.83;;
20245;SDS011;10281;54.406;18.556;2023-07-31T03:28:31;6.57;;;2.97;;
20245;SDS011;10281;54.406;18.556;2023-07-31T03:30:57;6.00;;;3.23;;
20245;SDS011;10281;54.406;18.556;2023-07-31T03:33:25;5.30;;;3.13;;
20245;SDS011;10281;54.406;18.556;2023-07-31T03:35:52;6.20;;;3.00;;
20245;SDS011;10281;54.406;18.556;2023-07-31T03:38:19;6.77;;;3.30;;
20245;SDS011;10281;54.406;18.556;2023-07-31T03:40:46;6.77;;;3.00;;
20245;SDS011;10281;54.406;18.556;2023-07-31T03:43:12;4.40;;;2.90;;
20245;SDS011;10281;54.406;18.556;2023-07-31T03:45:39;7.83;;;3.10;;
20245;SDS011;10281;54.406;18.556;2023-07-31T03:48:06;6.23;;;3.07;;
20245;SDS011;10281;54.406;18.556;2023-07-31T03:50:33;5.77;;;2.93;;
20245;SDS011;10281;54.406;18.556;2023-07-31T03:53:00;6.57;;;2.97;;
20245;SDS011;10281;54.406;18.556;2023-07-31T03:55:26;6.10;;;3.00;;
20245;SDS011;10281;54.406;18.556;2023-07-31T03:57:53;6.33;;;3.27;;
20245;SDS011;10281;54.406;18.556;2023-07-31T04:00:19;8.07;;;3.40;;
20245;SDS011;10281;54.406;18.556;2023-07-31T04:02:47;6.43;;;3.23;;
20245;SDS011;10281;54.406;18.556;2023-07-31T04:05:14;5.33;;;3.03;;
20245;SDS011;10281;54.406;18.556;2023-07-31T04:07:41;6.47;;;3.07;;
20245;SDS011;10281;54.406;18.556;2023-07-31T04:10:07;5.73;;;3.50;;
20245;SDS011;10281;54.406;18.556;2023-07-31T04:12:34;8.00;;;3.57;;
20245;SDS011;10281;54.406;18.556;2023-07-31T04:15:01;6.30;;;3.47;;
20245;SDS011;10281;54.406;18.556;2023-07-31T04:17:28;5.70;;;3.10;;
20245;SDS011;10281;54.406;18.556;2023-07-31T04:19:54;6.80;;;3.23;;
20245;SDS011;10281;54.406;18.556;2023-07-31T04:22:21;7.27;;;3.47;;
20245;SDS011;10281;54.406;18.556;2023-07-31T04:24:47;5.77;;;3.47;;
20245;SDS011;10281;54.406;18.556;2023-07-31T04:27:14;7.17;;;3.27;;
20245;SDS011;10281;54.406;18.556;2023-07-31T04:29:41;7.53;;;3.50;;
20245;SDS011;10281;54.406;18.556;2023-07-31T04:32:08;7.83;;;3.30;;
20245;SDS011;10281;54.406;18.556;2023-07-31T04:34:34;5.77;;;3.10;;
20245;SDS011;10281;54.406;18.556;2023-07-31T04:37:01;8.03;;;3.40;;
20245;SDS011;10281;54.406;18.556;2023-07-31T04:39:28;8.87;;;3.23;;
20245;SDS011;10281;54.406;18.556;2023-07-31T04:41:55;6.10;;;3.10;;
20245;SDS011;10281;54.406;18.556;2023-07-31T04:44:21;6.17;;;3.17;;
20245;SDS011;10281;54.406;18.556;2023-07-31T04:46:48;5.80;;;3.27;;
20245;SDS011;10281;54.406;18.556;2023-07-31T04:49:15;5.87;;;2.93;;
20245;SDS011;10281;54.406;18.556;2023-07-31T04:51:41;4.37;;;3.00;;
20245;SDS011;10281;54.406;18.556;2023-07-31T04:54:08;6.13;;;2.80;;
20245;SDS011;10281;54.406;18.556;2023-07-31T04:56:35;7.77;;;3.20;;
20245;SDS011;10281;54.406;18.556;2023-07-31T04:59:01;7.20;;;2.93;;
20245;SDS011;10281;54.406;18.556;2023-07-31T05:01:28;6.37;;;2.90;;
20245;SDS011;10281;54.406;18.556;2023-07-31T05:03:54;7.97;;;3.20;;
20245;SDS011;10281;54.406;18.556;2023-07-31T05:06:21;7.00;;;3.00;;
20245;SDS011;10281;54.406;18.556;2023-07-31T05:08:47;6.30;;;2.97;;
20245;SDS011;10281;54.406;18.556;2023-07-31T05:11:14;7.73;;;3.03;;
20245;SDS011;10281;54.406;18.556;2023-07-31T05:13:41;7.47;;;2.90;;
20245;SDS011;10281;54.406;18.556;2023-07-31T05:16:08;4.57;;;2.40;;
20245;SDS011;10281;54.406;18.556;2023-07-31T05:18:35;7.63;;;2.60;;
20245;SDS011;10281;54.406;18.556;2023-07-31T05:21:01;4.17;;;2.60;;
20245;SDS011;10281;54.406;18.556;2023-07-31T05:23:28;3.67;;;2.37;;
20245;SDS011;10281;54.406;18.556;2023-07-31T05:26:02;7.97;;;2.67;;
20245;SDS011;10281;54.406;18.556;2023-07-31T05:28:30;6.43;;;2.40;;
20245;SDS011;10281;54.406;18.556;2023-07-31T05:30:59;6.73;;;2.73;;
20245;SDS011;10281;54.406;18.556;2023-07-31T05:33:26;5.37;;;2.50;;
20245;SDS011;10281;54.406;18.556;2023-07-31T05:35:53;11.57;;;2.80;;
20245;SDS011;10281;54.406;18.556;2023-07-31T05:38:20;5.37;;;2.67;;
20245;SDS011;10281;54.406;18.556;2023-07-31T05:40:47;5.40;;;2.63;;
20245;SDS011;10281;54.406;18.556;2023-07-31T05:43:13;6.10;;;2.50;;
20245;SDS011;10281;54.406;18.556;2023-07-31T05:45:41;4.97;;;2.40;;
20245;SDS011;10281;54.406;18.556;2023-07-31T05:48:09;9.13;;;2.40;;
20245;SDS011;10281;54.406;18.556;2023-07-31T05:50:35;6.03;;;2.40;;
20245;SDS011;10281;54.406;18.556;2023-07-31T05:53:04;6.70;;;2.43;;
20245;SDS011;10281;54.406;18.556;2023-07-31T05:55:31;6.47;;;2.40;;
20245;SDS011;10281;54.406;18.556;2023-07-31T05:57:58;5.97;;;2.20;;
20245;SDS011;10281;54.406;18.556;2023-07-31T06:00:25;6.10;;;2.50;;
20245;SDS011;10281;54.406;18.556;2023-07-31T06:02:52;7.47;;;2.37;;
20245;SDS011;10281;54.406;18.556;2023-07-31T06:05:19;6.97;;;2.67;;
20245;SDS011;10281;54.406;18.556;2023-07-31T06:07:46;7.53;;;2.70;;
20245;SDS011;10281;54.406;18.556;2023-07-31T06:10:12;7.63;;;2.43;;
20245;SDS011;10281;54.406;18.556;2023-07-31T06:12:39;4.33;;;2.30;;
20245;SDS011;10281;54.406;18.556;2023-07-31T06:15:06;5.47;;;2.47;;
20245;SDS011;10281;54.406;18.556;2023-07-31T06:17:33;6.87;;;2.40;;
20245;SDS011;10281;54.406;18.556;2023-07-31T06:19:59;7.27;;;2.70;;
20245;SDS011;10281;54.406;18.556;2023-07-31T06:22:26;5.43;;;2.43;;
20245;SDS011;10281;54.406;18.556;2023-07-31T06:24:52;9.27;;;2.37;;
20245;SDS011;10281;54.406;18.556;2023-07-31T06:27:19;6.47;;;2.40;;
20245;SDS011;10281;54.406;18.556;2023-07-31T06:29:46;7.50;;;2.27;;
20245;SDS011;10281;54.406;18.556;2023-07-31T06:32:13;5.70;;;2.50;;
20245;SDS011;10281;54.406;18.556;2023-07-31T06:34:40;5.97;;;2.20;;
20245;SDS011;10281;54.406;18.556;2023-07-31T06:37:06;5.40;;;2.20;;
20245;SDS011;10281;54.406;18.556;2023-07-31T06:39:33;4.07;;;2.07;;
20245;SDS011;10281;54.406;18.556;2023-07-31T06:41:59;2.63;;;1.93;;
20245;SDS011;10281;54.406;18.556;2023-07-31T06:44:26;6.30;;;2.37;;
20245;SDS011;10281;54.406;18.556;2023-07-31T06:46:53;5.73;;;2.20;;
20245;SDS011;10281;54.406;18.556;2023-07-31T06:49:20;5.33;;;2.40;;
20245;SDS011;10281;54.406;18.556;2023-07-31T06:51:46;6.60;;;2.50;;
20245;SDS011;10281;54.406;18.556;2023-07-31T06:54:13;5.80;;;2.60;;
20245;SDS011;10281;54.406;18.556;2023-07-31T06:56:40;5.00;;;2.17;;
20245;SDS011;10281;54.406;18.556;2023-07-31T06:59:06;5.60;;;2.17;;
20245;SDS011;10281;54.406;18.556;2023-07-31T07:01:33;4.20;;;2.10;;
20245;SDS011;10281;54.406;18.556;2023-07-31T07:04:00;6.47;;;2.00;;
20245;SDS011;10281;54.406;18.556;2023-07-31T07:06:26;5.30;;;2.17;;
20245;SDS011;10281;54.406;18.556;2023-07-31T07:08:53;6.23;;;2.10;;
20245;SDS011;10281;54.406;18.556;2023-07-31T07:11:19;4.27;;;2.03;;
20245;SDS011;10281;54.406;18.556;2023-07-31T07:13:46;6.27;;;2.20;;
20245;SDS011;10281;54.406;18.556;2023-07-31T07:16:13;4.30;;;1.97;;
20245;SDS011;10281;54.406;18.556;2023-07-31T07:18:40;6.00;;;1.90;;
20245;SDS011;10281;54.406;18.556;2023-07-31T07:21:06;4.87;;;2.10;;
20245;SDS011;10281;54.406;18.556;2023-07-31T07:23:34;3.77;;;2.13;;
20245;SDS011;10281;54.406;18.556;2023-07-31T07:26:01;5.83;;;2.17;;
20245;SDS011;10281;54.406;18.556;2023-07-31T07:28:27;2.53;;;1.80;;
20245;SDS011;10281;54.406;18.556;2023-07-31T07:30:54;4.97;;;1.70;;
20245;SDS011;10281;54.406;18.556;2023-07-31T07:33:21;4.60;;;2.20;;
20245;SDS011;10281;54.406;18.556;2023-07-31T07:35:47;8.13;;;2.47;;
20245;SDS011;10281;54.406;18.556;2023-07-31T07:38:14;4.93;;;2.00;;
20245;SDS011;10281;54.406;18.556;2023-07-31T07:40:41;5.30;;;1.90;;
20245;SDS011;10281;54.406;18.556;2023-07-31T07:43:08;5.03;;;1.83;;
20245;SDS011;10281;54.406;18.556;2023-07-31T07:45:34;2.17;;;1.60;;
20245;SDS011;10281;54.406;18.556;2023-07-31T07:48:01;3.47;;;1.80;;
20245;SDS011;10281;54.406;18.556;2023-07-31T07:50:28;3.97;;;2.30;;
20245;SDS011;10281;54.406;18.556;2023-07-31T07:52:55;6.93;;;2.00;;
20245;SDS011;10281;54.406;18.556;2023-07-31T07:55:21;6.67;;;1.87;;
20245;SDS011;10281;54.406;18.556;2023-07-31T07:57:48;4.93;;;1.83;;
20245;SDS011;10281;54.406;18.556;2023-07-31T08:00:16;5.67;;;1.97;;
20245;SDS011;10281;54.406;18.556;2023-07-31T08:02:43;6.90;;;1.73;;
20245;SDS011;10281;54.406;18.556;2023-07-31T08:05:10;2.50;;;1.50;;
20245;SDS011;10281;54.406;18.556;2023-07-31T08:07:36;2.70;;;1.40;;
20245;SDS011;10281;54.406;18.556;2023-07-31T08:10:03;3.03;;;1.37;;
20245;SDS011;10281;54.406;18.556;2023-07-31T08:12:30;2.83;;;1.30;;
20245;SDS011;10281;54.406;18.556;2023-07-31T08:14:57;4.50;;;1.47;;
20245;SDS011;10281;54.406;18.556;2023-07-31T08:17:25;1.83;;;1.20;;
20245;SDS011;10281;54.406;18.556;2023-07-31T08:19:52;5.50;;;1.50;;
20245;SDS011;10281;54.406;18.556;2023-07-31T08:22:18;3.67;;;1.70;;
20245;SDS011;10281;54.406;18.556;2023-07-31T08:24:45;4.53;;;1.40;;
20245;SDS011;10281;54.406;18.556;2023-07-31T08:27:11;2.93;;;1.43;;
20245;SDS011;10281;54.406;18.556;2023-07-31T08:29:38;2.83;;;1.60;;
20245;SDS011;10281;54.406;18.556;2023-07-31T08:32:05;3.03;;;1.30;;
20245;SDS011;10281;54.406;18.556;2023-07-31T08:34:32;3.73;;;1.40;;
20245;SDS011;10281;54.406;18.556;2023-07-31T08:36:58;2.63;;;1.37;;
20245;SDS011;10281;54.406;18.556;2023-07-31T08:39:25;1.97;;;1.00;;
20245;SDS011;10281;54.406;18.556;2023-07-31T08:41:57;2.07;;;1.10;;
20245;SDS011;10281;54.406;18.556;2023-07-31T08:44:24;2.43;;;1.07;;
20245;SDS011;10281;54.406;18.556;2023-07-31T08:46:51;6.43;;;1.73;;
20245;SDS011;10281;54.406;18.556;2023-07-31T08:49:18;3.90;;;1.30;;
20245;SDS011;10281;54.406;18.556;2023-07-31T08:51:47;1.53;;;1.10;;
20245;SDS011;10281;54.406;18.556;2023-07-31T08:54:16;2.53;;;1.20;;
20245;SDS011;10281;54.406;18.556;2023-07-31T08:56:43;2.43;;;1.13;;
20245;SDS011;10281;54.406;18.556;2023-07-31T08:59:10;2.53;;;1.17;;
20245;SDS011;10281;54.406;18.556;2023-07-31T09:01:41;2.67;;;1.33;;
20245;SDS011;10281;54.406;18.556;2023-07-31T09:04:09;2.77;;;1.10;;
20245;SDS011;10281;54.406;18.556;2023-07-31T09:06:38;2.00;;;1.13;;
20245;SDS011;10281;54.406;18.556;2023-07-31T09:09:06;3.30;;;1.30;;
20245;SDS011;10281;54.406;18.556;2023-07-31T09:11:33;2.07;;;1.03;;
20245;SDS011;10281;54.406;18.556;2023-07-31T09:13:59;3.07;;;1.30;;
20245;SDS011;10281;54.406;18.556;2023-07-31T09:16:30;3.77;;;1.00;;
20245;SDS011;10281;54.406;18.556;2023-07-31T09:18:59;2.10;;;1.30;;
20245;SDS011;10281;54.406;18.556;2023-07-31T09:21:27;2.40;;;1.10;;
20245;SDS011;10281;54.406;18.556;2023-07-31T09:23:54;1.77;;;1.33;;
20245;SDS011;10281;54.406;18.556;2023-07-31T09:28:56;2.73;;;1.30;;
20245;SDS011;10281;54.406;18.556;2023-07-31T09:34:01;3.57;;;1.47;;
20245;SDS011;10281;54.406;18.556;2023-07-31T09:36:29;1.77;;;1.10;;
20245;SDS011;10281;54.406;18.556;2023-07-31T09:39:01;2.67;;;1.40;;
20245;SDS011;10281;54.406;18.556;2023-07-31T09:41:28;2.73;;;1.17;;
20245;SDS011;10281;54.406;18.556;2023-07-31T09:43:55;2.23;;;1.30;;
20245;SDS011;10281;54.406;18.556;2023-07-31T09:46:22;1.93;;;0.90;;
20245;SDS011;10281;54.406;18.556;2023-07-31T09:48:48;2.87;;;1.20;;
20245;SDS011;10281;54.406;18.556;2023-07-31T09:51:15;3.87;;;1.30;;
20245;SDS011;10281;54.406;18.556;2023-07-31T09:53:41;2.37;;;1.20;;
20245;SDS011;10281;54.406;18.556;2023-07-31T09:56:12;4.83;;;1.30;;
20245;SDS011;10281;54.406;18.556;2023-07-31T09:58:39;1.97;;;1.03;;
20245;SDS011;10281;54.406;18.556;2023-07-31T10:01:06;3.23;;;1.13;;
20245;SDS011;10281;54.406;18.556;2023-07-31T10:03:33;3.37;;;1.10;;
20245;SDS011;10281;54.406;18.556;2023-07-31T10:06:00;2.13;;;1.23;;
20245;SDS011;10281;54.406;18.556;2023-07-31T10:08:30;3.30;;;1.10;;
20245;SDS011;10281;54.406;18.556;2023-07-31T10:10:58;2.33;;;1.30;;
20245;SDS011;10281;54.406;18.556;2023-07-31T10:13:28;2.57;;;1.10;;
20245;SDS011;10281;54.406;18.556;2023-07-31T10:15:58;1.80;;;1.30;;
20245;SDS011;10281;54.406;18.556;2023-07-31T10:18:26;3.33;;;1.40;;
20245;SDS011;10281;54.406;18.556;2023-07-31T10:20:54;3.83;;;1.30;;
20245;SDS011;10281;54.406;18.556;2023-07-31T10:23:22;2.60;;;1.20;;
20245;SDS011;10281;54.406;18.556;2023-07-31T10:25:51;3.20;;;1.40;;
20245;SDS011;10281;54.406;18.556;2023-07-31T10:28:20;2.40;;;1.10;;
20245;SDS011;10281;54.406;18.556;2023-07-31T10:30:47;3.00;;;1.10;;
20245;SDS011;10281;54.406;18.556;2023-07-31T10:33:15;13.60;;;4.17;;
20245;SDS011;10281;54.406;18.556;2023-07-31T10:35:43;5.03;;;2.00;;
20245;SDS011;10281;54.406;18.556;2023-07-31T10:38:10;2.70;;;1.40;;
20245;SDS011;10281;54.406;18.556;2023-07-31T10:40:37;2.90;;;1.20;;
20245;SDS011;10281;54.406;18.556;2023-07-31T10:43:04;1.80;;;1.33;;
20245;SDS011;10281;54.406;18.556;2023-07-31T10:45:34;2.27;;;1.20;;
20245;SDS011;10281;54.406;18.556;2023-07-31T10:48:06;1.27;;;1.00;;
20245;SDS011;10281;54.406;18.556;2023-07-31T10:50:37;4.13;;;1.50;;
20245;SDS011;10281;54.406;18.556;2023-07-31T10:53:05;1.97;;;1.27;;
20245;SDS011;10281;54.406;18.556;2023-07-31T10:55:38;1.80;;;1.10;;
20245;SDS011;10281;54.406;18.556;2023-07-31T10:58:07;2.37;;;1.30;;
20245;SDS011;10281;54.406;18.556;2023-07-31T11:00:38;3.00;;;1.40;;
20245;SDS011;10281;54.406;18.556;2023-07-31T11:03:07;1.77;;;1.20;;
20245;SDS011;10281;54.406;18.556;2023-07-31T11:05:43;1.57;;;1.13;;
20245;SDS011;10281;54.406;18.556;2023-07-31T11:08:15;4.10;;;1.27;;
20245;SDS011;10281;54.406;18.556;2023-07-31T11:10:44;1.50;;;1.20;;
20245;SDS011;10281;54.406;18.556;2023-07-31T11:13:11;2.47;;;1.33;;
20245;SDS011;10281;54.406;18.556;2023-07-31T11:15:38;1.80;;;1.30;;
20245;SDS011;10281;54.406;18.556;2023-07-31T11:18:05;2.47;;;1.20;;
20245;SDS011;10281;54.406;18.556;2023-07-31T11:20:34;2.07;;;1.30;;
20245;SDS011;10281;54.406;18.556;2023-07-31T11:23:02;3.53;;;1.20;;
20245;SDS011;10281;54.406;18.556;2023-07-31T11:25:30;3.40;;;1.40;;
20245;SDS011;10281;54.406;18.556;2023-07-31T11:28:05;3.27;;;1.27;;
20245;SDS011;10281;54.406;18.556;2023-07-31T11:30:35;3.77;;;1.63;;
20245;SDS011;10281;54.406;18.556;2023-07-31T11:33:02;1.67;;;1.10;;
20245;SDS011;10281;54.406;18.556;2023-07-31T11:35:31;3.40;;;1.30;;
20245;SDS011;10281;54.406;18.556;2023-07-31T11:37:59;2.03;;;1.07;;
20245;SDS011;10281;54.406;18.556;2023-07-31T11:40:26;4.23;;;1.30;;
20245;SDS011;10281;54.406;18.556;2023-07-31T11:42:56;3.53;;;1.60;;
20245;SDS011;10281;54.406;18.556;2023-07-31T11:45:25;5.37;;;1.30;;
20245;SDS011;10281;54.406;18.556;2023-07-31T11:47:54;2.30;;;1.60;;
20245;SDS011;10281;54.406;18.556;2023-07-31T11:50:22;3.87;;;1.50;;
20245;SDS011;10281;54.406;18.556;2023-07-31T11:52:52;3.37;;;1.10;;
20245;SDS011;10281;54.406;18.556;2023-07-31T11:55:22;4.33;;;1.43;;
20245;SDS011;10281;54.406;18.556;2023-07-31T11:57:50;4.17;;;1.47;;
20245;SDS011;10281;54.406;18.556;2023-07-31T12:00:17;2.13;;;1.40;;
20245;SDS011;10281;54.406;18.556;2023-07-31T12:02:44;5.63;;;1.70;;
20245;SDS011;10281;54.406;18.556;2023-07-31T12:05:11;2.27;;;1.40;;
20245;SDS011;10281;54.406;18.556;2023-07-31T12:07:44;4.50;;;1.43;;
20245;SDS011;10281;54.406;18.556;2023-07-31T12:12:56;2.93;;;1.30;;
20245;SDS011;10281;54.406;18.556;2023-07-31T12:15:33;4.70;;;1.70;;
20245;SDS011;10281;54.406;18.556;2023-07-31T12:18:04;2.97;;;1.60;;
20245;SDS011;10281;54.406;18.556;2023-07-31T12:20:32;2.47;;;1.50;;
20245;SDS011;10281;54.406;18.556;2023-07-31T12:22:59;1.73;;;1.27;;
20245;SDS011;10281;54.406;18.556;2023-07-31T12:25:28;2.27;;;1.53;;
20245;SDS011;10281;54.406;18.556;2023-07-31T12:27:58;2.90;;;1.80;;
20245;SDS011;10281;54.406;18.556;2023-07-31T12:30:33;2.73;;;1.67;;
20245;SDS011;10281;54.406;18.556;2023-07-31T12:33:03;4.40;;;2.13;;
20245;SDS011;10281;54.406;18.556;2023-07-31T12:35:35;2.17;;;1.37;;
20245;SDS011;10281;54.406;18.556;2023-07-31T12:38:03;3.53;;;1.57;;
20245;SDS011;10281;54.406;18.556;2023-07-31T12:40:30;2.40;;;1.50;;
20245;SDS011;10281;54.406;18.556;2023-07-31T12:42:57;3.53;;;1.60;;
20245;SDS011;10281;54.406;18.556;2023-07-31T12:45:24;4.27;;;1.70;;
20245;SDS011;10281;54.406;18.556;2023-07-31T12:47:50;2.53;;;1.60;;
20245;SDS011;10281;54.406;18.556;2023-07-31T12:50:17;3.30;;;1.90;;
20245;SDS011;10281;54.406;18.556;2023-07-31T12:52:43;2.23;;;1.50;;
20245;SDS011;10281;54.406;18.556;2023-07-31T12:55:10;4.57;;;1.70;;
20245;SDS011;10281;54.406;18.556;2023-07-31T12:57:37;2.93;;;1.60;;
20245;SDS011;10281;54.406;18.556;2023-07-31T13:00:04;3.60;;;1.80;;
20245;SDS011;10281;54.406;18.556;2023-07-31T13:02:32;2.83;;;1.50;;
20245;SDS011;10281;54.406;18.556;2023-07-31T13:04:58;2.47;;;1.40;;
20245;SDS011;10281;54.406;18.556;2023-07-31T13:07:26;3.27;;;1.87;;
20245;SDS011;10281;54.406;18.556;2023-07-31T13:09:52;2.13;;;1.80;;
20245;SDS011;10281;54.406;18.556;2023-07-31T13:12:19;3.50;;;2.20;;
20245;SDS011;10281;54.406;18.556;2023-07-31T13:14:46;3.40;;;1.80;;
20245;SDS011;10281;54.406;18.556;2023-07-31T13:17:12;4.30;;;1.97;;
20245;SDS011;10281;54.406;18.556;2023-07-31T13:19:39;4.13;;;1.77;;
20245;SDS011;10281;54.406;18.556;2023-07-31T13:22:06;3.67;;;1.90;;
20245;SDS011;10281;54.406;18.556;2023-07-31T13:24:32;3.47;;;1.80;;
20245;SDS011;10281;54.406;18.556;2023-07-31T13:26:59;3.77;;;2.13;;
20245;SDS011;10281;54.406;18.556;2023-07-31T13:29:25;2.83;;;1.80;;
20245;SDS011;10281;54.406;18.556;2023-07-31T13:31:52;4.13;;;1.90;;
20245;SDS011;10281;54.406;18.556;2023-07-31T13:34:19;3.93;;;1.83;;
20245;SDS011;10281;54.406;18.556;2023-07-31T13:36:45;2.37;;;1.33;;
20245;SDS011;10281;54.406;18.556;2023-07-31T13:39:12;3.23;;;1.80;;
20245;SDS011;10281;54.406;18.556;2023-07-31T13:41:39;4.67;;;2.10;;
20245;SDS011;10281;54.406;18.556;2023-07-31T13:44:05;4.07;;;1.70;;
20245;SDS011;10281;54.406;18.556;2023-07-31T13:46:32;2.73;;;1.60;;
20245;SDS011;10281;54.406;18.556;2023-07-31T13:48:59;3.13;;;1.47;;
20245;SDS011;10281;54.406;18.556;2023-07-31T13:51:27;1.83;;;1.30;;
20245;SDS011;10281;54.406;18.556;2023-07-31T13:53:53;2.80;;;1.47;;
20245;SDS011;10281;54.406;18.556;2023-07-31T13:56:20;2.43;;;1.40;;
20245;SDS011;10281;54.406;18.556;2023-07-31T13:58:47;1.63;;;1.43;;
20245;SDS011;10281;54.406;18.556;2023-07-31T14:01:14;4.13;;;1.70;;
20245;SDS011;10281;54.406;18.556;2023-07-31T14:03:40;1.70;;;1.30;;
20245;SDS011;10281;54.406;18.556;2023-07-31T14:06:07;2.27;;;1.57;;
20245;SDS011;10281;54.406;18.556;2023-07-31T14:08:33;5.00;;;1.70;;
20245;SDS011;10281;54.406;18.556;2023-07-31T14:11:00;1.90;;;1.30;;
20245;SDS011;10281;54.406;18.556;2023-07-31T14:13:27;3.63;;;1.63;;
20245;SDS011;10281;54.406;18.556;2023-07-31T14:15:53;2.87;;;1.47;;
20245;SDS011;10281;54.406;18.556;2023-07-31T14:18:20;1.83;;;1.40;;
20245;SDS011;10281;54.406;18.556;2023-07-31T14:20:46;2.37;;;1.67;;
20245;SDS011;10281;54.406;18.556;2023-07-31T14:23:13;1.80;;;1.50;;
20245;SDS011;10281;54.406;18.556;2023-07-31T14:25:41;2.07;;;1.10;;
20245;SDS011;10281;54.406;18.556;2023-07-31T14:28:08;2.13;;;1.27;;
20245;SDS011;10281;54.406;18.556;2023-07-31T14:30:34;4.53;;;1.33;;
20245;SDS011;10281;54.406;18.556;2023-07-31T14:33:01;2.80;;;1.67;;
20245;SDS011;10281;54.406;18.556;2023-07-31T14:35:28;2.33;;;1.50;;
20245;SDS011;10281;54.406;18.556;2023-07-31T14:37:54;1.80;;;1.40;;
20245;SDS011;10281;54.406;18.556;2023-07-31T14:40:21;3.67;;;1.60;;
20245;SDS011;10281;54.406;18.556;2023-07-31T14:42:48;1.73;;;1.40;;
20245;SDS011;10281;54.406;18.556;2023-07-31T14:45:14;1.73;;;1.20;;